createdAt,value
2023-03-04T00:02:26.118Z,6.25
2023-03-04T00:04:52.878Z,6.24
2023-03-04T00:07:20.181Z,6.23
2023-03-04T00:09:47.059Z,6.21
2023-03-04T00:12:13.973Z,6.20
2023-03-04T00:14:41.302Z,6.16
2023-03-04T00:17:08.176Z,6.16
2023-03-04T00:19:35.587Z,6.15
2023-03-04T00:22:04.338Z,6.15
2023-03-04T00:24:31.984Z,6.16
2023-03-04T00:26:58.924Z,6.15
2023-03-04T00:29:25.914Z,6.14
2023-03-04T00:31:52.825Z,6.14
2023-03-04T00:34:20.280Z,6.15
2023-03-04T00:36:47.196Z,6.16
2023-03-04T00:39:14.259Z,6.17
2023-03-04T00:41:41.414Z,6.19
2023-03-04T00:44:08.356Z,6.14
2023-03-04T00:46:35.186Z,6.17
2023-03-04T00:49:02.016Z,6.14
2023-03-04T00:51:28.939Z,6.15
2023-03-04T00:53:55.787Z,6.13
2023-03-04T00:56:22.739Z,6.15
2023-03-04T00:58:49.573Z,6.14
2023-03-04T01:01:16.521Z,6.17
2023-03-04T01:03:43.443Z,6.16
2023-03-04T01:06:11.464Z,6.17
2023-03-04T01:08:38.925Z,6.17
2023-03-04T01:11:06.720Z,6.19
2023-03-04T01:13:33.606Z,6.20
2023-03-04T01:16:00.412Z,6.20
2023-03-04T01:18:27.415Z,6.22
2023-03-04T01:20:54.269Z,6.20
2023-03-04T01:23:21.161Z,6.21
2023-03-04T01:25:48.407Z,6.19
2023-03-04T01:28:15.314Z,6.19
2023-03-04T01:30:42.141Z,6.11
2023-03-04T01:33:08.998Z,6.10
2023-03-04T01:35:36.290Z,6.06
2023-03-04T01:38:04.584Z,6.01
2023-03-04T01:40:32.704Z,5.99
2023-03-04T01:42:59.809Z,5.98
2023-03-04T01:45:26.929Z,5.98
2023-03-04T01:47:53.820Z,5.98
2023-03-04T01:50:36.112Z,5.97
2023-03-04T01:53:03.959Z,5.97
2023-03-04T01:55:31.537Z,5.97
2023-03-04T01:57:58.611Z,5.98
2023-03-04T02:00:34.022Z,5.98
2023-03-04T02:03:07.853Z,6.01
2023-03-04T02:05:37.242Z,6.01
2023-03-04T02:08:06.040Z,6.02
2023-03-04T02:10:33.808Z,6.01
2023-03-04T02:13:01.643Z,6.01
2023-03-04T02:15:29.943Z,6.00
2023-03-04T02:17:57.113Z,6.02
2023-03-04T02:20:51.141Z,6.04
2023-03-04T02:23:29.136Z,6.05
2023-03-04T02:26:18.541Z,6.07
2023-03-04T02:28:50.955Z,6.08
2023-03-04T02:31:31.942Z,6.08
2023-03-04T02:34:02.535Z,6.08
2023-03-04T02:36:30.574Z,6.09
2023-03-04T02:39:07.248Z,6.09
2023-03-04T02:41:34.584Z,6.09
2023-03-04T02:44:01.470Z,6.09
2023-03-04T02:46:28.478Z,6.10
2023-03-04T02:48:55.598Z,6.09
2023-03-04T02:51:22.357Z,6.06
2023-03-04T02:53:49.295Z,6.04
2023-03-04T02:56:16.371Z,6.02
2023-03-04T02:58:43.140Z,6.02
2023-03-04T03:01:12.010Z,6.01
2023-03-04T03:03:38.997Z,6.01
2023-03-04T03:06:06.174Z,6.02
2023-03-04T03:08:33.146Z,6.02
2023-03-04T03:11:01.247Z,6.02
2023-03-04T03:13:30.116Z,6.00
2023-03-04T03:15:56.979Z,6.00
2023-03-04T03:18:24.743Z,5.99
2023-03-04T03:20:51.654Z,5.97
2023-03-04T03:23:18.594Z,5.97
2023-03-04T03:25:45.367Z,5.98
2023-03-04T03:28:12.178Z,6.01
2023-03-04T03:30:39.025Z,6.02
2023-03-04T03:33:06.800Z,6.04
2023-03-04T03:35:34.384Z,6.06
2023-03-04T03:38:01.178Z,6.09
2023-03-04T03:40:28.153Z,6.10
2023-03-04T03:42:54.899Z,6.10
2023-03-04T03:45:21.635Z,6.12
2023-03-04T03:47:48.488Z,6.12
2023-03-04T03:50:15.565Z,6.12
2023-03-04T03:52:42.443Z,6.14
2023-03-04T03:55:09.705Z,6.13
2023-03-04T03:57:36.499Z,6.10
2023-03-04T04:00:05.005Z,6.08
2023-03-04T04:02:39.394Z,6.05
2023-03-04T04:05:07.567Z,6.02
2023-03-04T04:07:34.472Z,6.01
2023-03-04T04:10:01.290Z,5.99
2023-03-04T04:12:28.131Z,6.01
2023-03-04T04:14:55.081Z,6.02
2023-03-04T04:17:22.008Z,6.06
2023-03-04T04:19:49.085Z,6.08
2023-03-04T04:22:19.602Z,6.09
2023-03-04T04:24:47.328Z,6.10
2023-03-04T04:27:14.167Z,6.11
2023-03-04T04:29:41.673Z,6.10
2023-03-04T04:32:09.126Z,6.09
2023-03-04T04:34:36.013Z,6.09
2023-03-04T04:37:02.837Z,6.11
2023-03-04T04:39:29.653Z,6.12
2023-03-04T04:41:56.729Z,6.13
2023-03-04T04:44:23.482Z,6.14
2023-03-04T04:46:50.241Z,6.10
2023-03-04T04:49:17.064Z,6.08
2023-03-04T04:51:43.985Z,6.06
2023-03-04T04:54:11.349Z,6.06
2023-03-04T04:56:38.200Z,6.07
2023-03-04T04:59:08.587Z,6.06
2023-03-04T05:01:35.556Z,6.07
2023-03-04T05:04:02.449Z,6.06
2023-03-04T05:06:29.235Z,6.04
2023-03-04T05:08:56.459Z,6.02
2023-03-04T05:11:23.262Z,6.01
2023-03-04T05:13:50.356Z,6.01
2023-03-04T05:16:17.879Z,6.01
2023-03-04T05:18:45.169Z,6.00
2023-03-04T05:21:12.369Z,6.00
2023-03-04T05:23:41.646Z,6.00
2023-03-04T05:26:11.584Z,6.00
2023-03-04T05:28:38.396Z,5.98
2023-03-04T05:31:05.590Z,5.97
2023-03-04T05:33:32.632Z,5.96
2023-03-04T05:35:59.569Z,5.98
2023-03-04T05:38:26.333Z,5.99
2023-03-04T05:41:01.815Z,5.98
2023-03-04T05:43:29.024Z,5.99
2023-03-04T05:45:56.230Z,6.01
2023-03-04T05:48:23.607Z,6.04
2023-03-04T05:50:54.911Z,6.07
2023-03-04T05:53:21.886Z,6.07
2023-03-04T05:55:49.506Z,6.12
2023-03-04T05:58:17.154Z,6.19
2023-03-04T06:00:44.330Z,6.21
2023-03-04T06:03:19.623Z,6.24
2023-03-04T06:05:46.496Z,6.27
2023-03-04T06:08:13.867Z,6.30
2023-03-04T06:10:41.295Z,6.34
2023-03-04T06:13:08.756Z,6.36
2023-03-04T06:15:35.619Z,6.37
2023-03-04T06:18:02.733Z,6.38
2023-03-04T06:20:29.557Z,6.42
2023-03-04T06:22:56.307Z,6.48
2023-03-04T06:25:23.675Z,6.52
2023-03-04T06:27:50.932Z,6.55
2023-03-04T06:30:18.800Z,6.56
2023-03-04T06:32:47.558Z,6.56
2023-03-04T06:35:15.980Z,6.55
2023-03-04T06:37:43.288Z,6.55
2023-03-04T06:40:11.178Z,6.53
2023-03-04T06:42:40.061Z,6.48
2023-03-04T06:45:08.140Z,6.48
2023-03-04T06:47:34.958Z,6.53
2023-03-04T06:50:03.213Z,6.55
2023-03-04T06:52:29.980Z,6.58
2023-03-04T06:54:56.769Z,6.60
2023-03-04T06:57:23.560Z,6.61
2023-03-04T06:59:50.369Z,6.64
2023-03-04T07:02:17.177Z,6.66
2023-03-04T07:04:43.886Z,6.68
2023-03-04T07:07:11.676Z,6.70
2023-03-04T07:09:38.652Z,6.69
2023-03-04T07:12:05.714Z,6.74
2023-03-04T07:14:32.655Z,6.73
2023-03-04T07:16:59.398Z,6.58
2023-03-04T07:19:26.281Z,6.50
2023-03-04T07:21:53.157Z,6.35
2023-03-04T07:24:19.928Z,6.35
2023-03-04T07:26:46.780Z,6.39
2023-03-04T07:29:13.746Z,6.37
2023-03-04T07:31:40.606Z,6.42
2023-03-04T07:34:10.836Z,6.54
2023-03-04T07:36:38.412Z,6.72
2023-03-04T07:39:06.736Z,6.90
2023-03-04T07:41:37.316Z,7.08
2023-03-04T07:44:05.905Z,7.31
2023-03-04T07:46:32.965Z,7.56
2023-03-04T07:48:59.732Z,7.85
2023-03-04T07:51:28.571Z,8.07
2023-03-04T07:54:00.287Z,8.27
2023-03-04T07:56:30.074Z,8.38
2023-03-04T07:58:57.256Z,8.57
2023-03-04T08:01:33.519Z,8.78
2023-03-04T08:04:00.693Z,8.94
2023-03-04T08:06:28.449Z,9.11
2023-03-04T08:09:06.665Z,9.30
2023-03-04T08:11:35.001Z,9.42
2023-03-04T08:14:01.858Z,9.53
2023-03-04T08:16:28.717Z,9.64
2023-03-04T08:18:57.969Z,9.78
2023-03-04T08:21:26.278Z,9.91
2023-03-04T08:23:54.013Z,9.98
2023-03-04T08:26:27.818Z,10.04
2023-03-04T08:28:56.621Z,10.13
2023-03-04T08:31:24.258Z,10.20
2023-03-04T08:33:52.745Z,10.28
2023-03-04T08:36:20.258Z,10.39
2023-03-04T08:38:47.186Z,10.52
2023-03-04T08:41:14.459Z,10.65
2023-03-04T08:43:41.777Z,10.74
2023-03-04T08:46:08.791Z,10.99
2023-03-04T08:48:36.632Z,11.14
2023-03-04T08:51:08.363Z,11.32
2023-03-04T08:53:35.146Z,11.52
2023-03-04T08:56:02.007Z,11.69
2023-03-04T08:58:28.832Z,11.77
2023-03-04T09:00:55.732Z,11.78
2023-03-04T09:03:22.552Z,11.96
2023-03-04T09:05:49.530Z,12.15
2023-03-04T09:08:17.076Z,12.38
2023-03-04T09:10:45.647Z,12.61
2023-03-04T09:13:14.765Z,12.80
2023-03-04T09:15:47.155Z,13.02
2023-03-04T09:18:14.751Z,13.06
2023-03-04T09:20:41.540Z,13.08
2023-03-04T09:23:09.838Z,13.20
2023-03-04T09:25:38.392Z,13.08
2023-03-04T09:28:06.241Z,13.29
2023-03-04T09:30:34.214Z,13.35
2023-03-04T09:33:01.280Z,13.36
2023-03-04T09:35:30.111Z,13.50
2023-03-04T09:37:57.902Z,13.63
2023-03-04T09:40:30.294Z,13.66
2023-03-04T09:43:03.625Z,13.63
2023-03-04T09:45:40.235Z,13.67
2023-03-04T09:48:08.120Z,13.78
2023-03-04T09:50:40.979Z,13.78
2023-03-04T09:53:25.826Z,13.83
2023-03-04T09:55:53.087Z,13.70
2023-03-04T09:58:29.066Z,13.68
2023-03-04T10:01:05.138Z,13.70
2023-03-04T10:03:50.327Z,13.76
2023-03-04T10:06:20.248Z,13.68
2023-03-04T10:08:59.184Z,13.54
2023-03-04T10:11:32.800Z,13.40
2023-03-04T10:14:22.519Z,13.11
2023-03-04T10:16:54.100Z,12.90
2023-03-04T10:19:56.935Z,12.99
2023-03-04T10:22:28.432Z,13.16
2023-03-04T10:24:57.823Z,13.15
2023-03-04T10:27:25.737Z,13.15
2023-03-04T10:29:52.626Z,13.36
2023-03-04T10:32:21.131Z,13.56
2023-03-04T10:34:48.308Z,13.76
2023-03-04T10:37:15.380Z,13.67
2023-03-04T10:39:47.269Z,13.96
2023-03-04T10:42:14.119Z,14.19
2023-03-04T10:44:59.043Z,14.25
2023-03-04T10:47:28.800Z,14.39
2023-03-04T10:50:06.102Z,14.32
2023-03-04T10:52:40.346Z,14.25
2023-03-04T10:55:41.926Z,14.15
2023-03-04T10:58:15.553Z,14.32
2023-03-04T11:00:42.609Z,14.37
2023-03-04T11:03:29.648Z,14.35
2023-03-04T11:06:07.678Z,14.47
2023-03-04T11:08:34.524Z,14.58
2023-03-04T11:11:01.872Z,14.58
2023-03-04T11:13:28.760Z,14.64
2023-03-04T11:15:58.477Z,14.85
2023-03-04T11:18:43.857Z,14.44
2023-03-04T11:21:24.271Z,14.42
2023-03-04T11:23:51.625Z,14.25
2023-03-04T11:26:50.739Z,14.10
2023-03-04T11:29:24.108Z,14.27
2023-03-04T11:31:58.259Z,14.30
2023-03-04T11:34:27.738Z,14.45
2023-03-04T11:37:19.463Z,14.59
2023-03-04T11:39:46.282Z,14.68
2023-03-04T11:42:28.279Z,14.70
2023-03-04T11:44:55.577Z,14.81
2023-03-04T11:47:40.759Z,14.83
2023-03-04T11:50:31.320Z,14.70
2023-03-04T11:53:15.576Z,14.69
2023-03-04T11:55:56.762Z,14.55
2023-03-04T11:59:00.597Z,14.28
2023-03-04T12:01:51.671Z,14.30
2023-03-04T12:04:39.821Z,13.90
2023-03-04T12:07:12.595Z,13.62
2023-03-04T12:10:09.358Z,13.68
2023-03-04T12:12:46.415Z,13.47
2023-03-04T12:15:28.273Z,13.32
2023-03-04T12:18:28.826Z,13.43
2023-03-04T12:21:17.030Z,13.44
2023-03-04T12:24:15.154Z,13.47
2023-03-04T12:26:51.112Z,13.49
2023-03-04T12:29:29.670Z,13.51
2023-03-04T12:32:24.578Z,13.49
2023-03-04T12:35:03.516Z,13.52
2023-03-04T12:37:48.206Z,13.51
2023-03-04T12:40:24.196Z,13.53
2023-03-04T12:43:07.098Z,13.56
2023-03-04T12:46:03.150Z,13.58
2023-03-04T12:48:40.613Z,13.61
2023-03-04T12:51:07.392Z,13.59
2023-03-04T12:53:58.915Z,13.58
2023-03-04T12:56:32.988Z,13.55
2023-03-04T12:59:00.747Z,13.55
2023-03-04T13:01:41.839Z,13.53
2023-03-04T13:04:38.539Z,13.49
2023-03-04T13:07:27.284Z,13.43
2023-03-04T13:10:17.712Z,13.27
2023-03-04T13:12:53.872Z,13.12
2023-03-04T13:15:32.295Z,13.09
2023-03-04T13:18:03.185Z,13.02
2023-03-04T13:20:29.972Z,12.92
2023-03-04T13:23:19.079Z,12.76
2023-03-04T13:25:50.854Z,12.74
2023-03-04T13:28:27.628Z,12.65
2023-03-04T13:30:55.752Z,12.57
2023-03-04T13:33:22.713Z,12.49
2023-03-04T13:36:04.137Z,12.44
2023-03-04T13:38:31.215Z,12.31
2023-03-04T13:41:31.301Z,12.22
2023-03-04T13:43:59.880Z,12.17
2023-03-04T13:46:27.662Z,12.04
2023-03-04T13:48:59.356Z,11.98
2023-03-04T13:51:29.694Z,11.89
2023-03-04T13:53:59.832Z,11.83
2023-03-04T13:56:42.982Z,11.78
2023-03-04T13:59:09.747Z,11.73
2023-03-04T14:01:39.565Z,11.64
2023-03-04T14:04:28.077Z,11.56
2023-03-04T14:07:00.771Z,11.51
2023-03-04T14:09:31.055Z,11.46
2023-03-04T14:12:02.681Z,11.43
2023-03-04T14:14:51.022Z,11.39
2023-03-04T14:17:24.257Z,11.37
2023-03-04T14:19:53.884Z,11.31
2023-03-04T14:22:33.356Z,11.27
2023-03-04T14:25:02.405Z,11.24
2023-03-04T14:27:33.139Z,11.22
2023-03-04T14:30:06.372Z,11.17
2023-03-04T14:32:33.542Z,11.14
2023-03-04T14:35:18.286Z,11.09
2023-03-04T14:38:02.665Z,11.03
2023-03-04T14:40:35.470Z,11.00
2023-03-04T14:43:19.099Z,10.94
2023-03-04T14:45:49.945Z,10.89
2023-03-04T14:48:31.116Z,10.85
2023-03-04T14:50:58.839Z,10.81
2023-03-04T14:53:28.614Z,10.78
2023-03-04T14:56:31.440Z,10.70
2023-03-04T14:58:59.215Z,10.64
2023-03-04T15:01:35.138Z,10.59
2023-03-04T15:04:08.304Z,10.54
2023-03-04T15:06:38.850Z,10.49
2023-03-04T15:09:22.370Z,10.44
2023-03-04T15:11:51.780Z,10.39
2023-03-04T15:14:40.375Z,10.36
2023-03-04T15:17:24.352Z,10.34
2023-03-04T15:20:00.362Z,10.31
2023-03-04T15:22:27.727Z,10.27
2023-03-04T15:24:54.528Z,10.24
2023-03-04T15:27:26.107Z,10.22
2023-03-04T15:29:59.399Z,10.18
2023-03-04T15:32:27.376Z,10.13
2023-03-04T15:34:54.531Z,10.10
2023-03-04T15:37:27.713Z,10.06
2023-03-04T15:39:56.950Z,10.03
2023-03-04T15:42:24.591Z,9.98
2023-03-04T15:44:51.378Z,9.95
2023-03-04T15:47:18.140Z,9.92
2023-03-04T15:49:47.632Z,9.90
2023-03-04T15:52:18.445Z,9.82
2023-03-04T15:54:46.301Z,9.79
2023-03-04T15:57:21.601Z,9.74
2023-03-04T15:59:48.543Z,9.68
2023-03-04T16:02:27.674Z,9.61
2023-03-04T16:04:54.651Z,9.56
2023-03-04T16:07:25.561Z,9.51
2023-03-04T16:09:59.643Z,9.46
2023-03-04T16:12:27.821Z,9.42
2023-03-04T16:14:55.125Z,9.38
2023-03-04T16:17:21.988Z,9.36
2023-03-04T16:19:49.025Z,9.32
2023-03-04T16:22:24.897Z,9.27
2023-03-04T16:24:54.741Z,9.22
2023-03-04T16:27:22.308Z,9.15
2023-03-04T16:29:49.142Z,9.05
2023-03-04T16:32:16.106Z,8.96
2023-03-04T16:34:42.886Z,8.92
2023-03-04T16:37:18.045Z,8.86
2023-03-04T16:39:46.282Z,8.82
2023-03-04T16:42:16.969Z,8.79
2023-03-04T16:44:43.782Z,8.76
2023-03-04T16:47:10.695Z,8.75
2023-03-04T16:49:38.032Z,8.71
2023-03-04T16:52:07.240Z,8.68
2023-03-04T16:54:36.252Z,8.66
2023-03-04T16:57:03.198Z,8.64
2023-03-04T16:59:30.265Z,8.61
2023-03-04T17:01:57.425Z,8.59
2023-03-04T17:04:24.752Z,8.56
2023-03-04T17:06:51.554Z,8.55
2023-03-04T17:09:18.393Z,8.53
2023-03-04T17:11:45.222Z,8.52
2023-03-04T17:14:12.121Z,8.53
2023-03-04T17:16:39.159Z,8.53
2023-03-04T17:19:06.089Z,8.52
2023-03-04T17:21:33.034Z,8.51
2023-03-04T17:23:59.946Z,8.49
2023-03-04T17:26:26.905Z,8.46
2023-03-04T17:28:53.705Z,8.42
2023-03-04T17:31:21.252Z,8.38
2023-03-04T17:33:48.660Z,8.36
2023-03-04T17:36:17.557Z,8.32
2023-03-04T17:38:44.765Z,8.31
2023-03-04T17:41:16.212Z,8.28
2023-03-04T17:43:47.140Z,8.22
2023-03-04T17:46:16.072Z,8.19
2023-03-04T17:48:43.161Z,8.14
2023-03-04T17:51:10.706Z,8.09
2023-03-04T17:53:38.750Z,8.05
2023-03-04T17:56:07.460Z,8.00
2023-03-04T17:58:36.309Z,7.93
2023-03-04T18:01:14.955Z,7.89
2023-03-04T18:03:41.861Z,7.83
2023-03-04T18:06:08.682Z,7.78
2023-03-04T18:08:35.385Z,7.73
2023-03-04T18:11:02.585Z,7.67
2023-03-04T18:13:29.412Z,7.63
2023-03-04T18:15:56.657Z,7.58
2023-03-04T18:18:23.605Z,7.55
2023-03-04T18:20:56.475Z,7.53
2023-03-04T18:23:23.385Z,7.50
2023-03-04T18:25:50.951Z,7.50
2023-03-04T18:28:17.706Z,7.46
2023-03-04T18:30:44.581Z,7.45
2023-03-04T18:33:11.453Z,7.45
2023-03-04T18:35:38.474Z,7.42
2023-03-04T18:38:05.284Z,7.41
2023-03-04T18:40:32.151Z,7.39
2023-03-04T18:43:00.195Z,7.38
2023-03-04T18:45:27.496Z,7.37
2023-03-04T18:47:54.695Z,7.35
2023-03-04T18:50:22.087Z,7.35
2023-03-04T18:52:50.618Z,7.32
2023-03-04T18:55:18.514Z,7.30
2023-03-04T18:57:50.542Z,7.28
2023-03-04T19:00:19.952Z,7.27
2023-03-04T19:02:56.722Z,7.28
2023-03-04T19:05:27.505Z,7.26
2023-03-04T19:07:54.746Z,7.24
2023-03-04T19:10:22.362Z,7.20
2023-03-04T19:12:49.834Z,7.15
2023-03-04T19:15:18.238Z,7.16
2023-03-04T19:17:46.207Z,7.15
2023-03-04T19:20:15.008Z,7.16
2023-03-04T19:22:42.488Z,7.17
2023-03-04T19:25:09.929Z,7.17
2023-03-04T19:27:37.066Z,7.18
2023-03-04T19:30:04.960Z,7.17
2023-03-04T19:32:31.888Z,7.15
2023-03-04T19:34:58.721Z,7.13
2023-03-04T19:37:25.727Z,7.11
2023-03-04T19:39:54.440Z,7.11
2023-03-04T19:42:21.603Z,7.09
2023-03-04T19:44:48.731Z,7.07
2023-03-04T19:47:15.585Z,7.07
2023-03-04T19:49:42.452Z,7.07
2023-03-04T19:52:09.230Z,7.08
2023-03-04T19:54:36.350Z,7.08
2023-03-04T19:57:03.129Z,7.04
2023-03-04T19:59:30.072Z,7.04
2023-03-04T20:01:56.926Z,7.05
2023-03-04T20:04:23.713Z,7.02
2023-03-04T20:06:51.583Z,6.99
2023-03-04T20:09:19.259Z,6.97
2023-03-04T20:11:57.814Z,6.90
2023-03-04T20:14:28.890Z,6.86
2023-03-04T20:17:00.990Z,6.84
2023-03-04T20:19:28.742Z,6.79
2023-03-04T20:21:56.452Z,6.73
2023-03-04T20:24:24.081Z,6.69
2023-03-04T20:26:51.688Z,6.65
2023-03-04T20:29:18.871Z,6.61
2023-03-04T20:31:46.571Z,6.59
2023-03-04T20:34:14.145Z,6.53
2023-03-04T20:36:41.060Z,6.50
2023-03-04T20:39:26.882Z,6.42
2023-03-04T20:41:55.324Z,6.34
2023-03-04T20:44:22.218Z,6.26
2023-03-04T20:46:48.992Z,6.14
2023-03-04T20:49:23.484Z,6.04
2023-03-04T20:51:51.748Z,5.92
2023-03-04T20:54:18.706Z,5.80
2023-03-04T20:56:45.789Z,5.69
2023-03-04T20:59:13.278Z,5.57
2023-03-04T21:01:42.654Z,5.46
2023-03-04T21:04:09.703Z,5.31
2023-03-04T21:06:38.657Z,5.19
2023-03-04T21:09:08.563Z,5.04
2023-03-04T21:11:42.494Z,4.94
2023-03-04T21:14:14.256Z,4.80
2023-03-04T21:16:41.588Z,4.66
2023-03-04T21:19:16.612Z,4.52
2023-03-04T21:21:44.596Z,4.42
2023-03-04T21:24:14.580Z,4.32
2023-03-04T21:26:45.214Z,4.22
2023-03-04T21:29:13.522Z,4.15
2023-03-04T21:31:43.753Z,4.06
2023-03-04T21:34:17.141Z,4.05
2023-03-04T21:36:44.016Z,4.06
2023-03-04T21:39:15.623Z,4.05
2023-03-04T21:41:42.935Z,4.02
2023-03-04T21:44:17.963Z,3.92
2023-03-04T21:46:56.635Z,3.83
2023-03-04T21:49:23.602Z,3.75
2023-03-04T21:51:50.375Z,3.64
2023-03-04T21:54:17.177Z,3.55
2023-03-04T21:56:43.929Z,3.52
2023-03-04T21:59:13.645Z,3.50
2023-03-04T22:01:41.765Z,3.44
2023-03-04T22:04:09.056Z,3.38
2023-03-04T22:06:36.155Z,3.27
2023-03-04T22:09:04.493Z,3.13
2023-03-04T22:11:31.855Z,3.09
2023-03-04T22:14:01.877Z,3.03
2023-03-04T22:16:29.431Z,3.02
2023-03-04T22:18:56.251Z,2.98
2023-03-04T22:21:23.126Z,2.95
2023-03-04T22:23:49.905Z,2.90
2023-03-04T22:26:26.928Z,2.85
2023-03-04T22:28:53.764Z,2.79
2023-03-04T22:31:30.438Z,2.70
2023-03-04T22:33:59.191Z,2.67
2023-03-04T22:36:26.697Z,2.66
2023-03-04T22:38:53.471Z,2.64
2023-03-04T22:41:21.202Z,2.62
2023-03-04T22:43:48.927Z,2.58
2023-03-04T22:46:21.373Z,2.56
2023-03-04T22:48:50.123Z,2.50
2023-03-04T22:51:17.592Z,2.45
2023-03-04T22:53:44.430Z,2.37
2023-03-04T22:56:13.882Z,2.30
2023-03-04T22:58:41.357Z,2.26
2023-03-04T23:01:08.767Z,2.19
2023-03-04T23:03:35.973Z,2.15
2023-03-04T23:06:08.969Z,2.12
2023-03-04T23:08:37.391Z,2.08
2023-03-04T23:11:31.957Z,2.05
2023-03-04T23:14:02.271Z,2.05
2023-03-04T23:16:29.333Z,2.08
2023-03-04T23:18:58.912Z,2.09
2023-03-04T23:21:28.203Z,2.10
2023-03-04T23:23:55.286Z,2.14
2023-03-04T23:26:21.961Z,2.19
2023-03-04T23:28:49.547Z,2.24
2023-03-04T23:31:17.501Z,2.30
2023-03-04T23:33:46.524Z,2.35
2023-03-04T23:36:16.574Z,2.38
2023-03-04T23:38:45.781Z,2.42
2023-03-04T23:41:18.568Z,2.43
2023-03-04T23:43:46.588Z,2.44
2023-03-04T23:46:14.559Z,2.42
2023-03-04T23:48:45.821Z,2.42
2023-03-04T23:51:24.079Z,2.39
2023-03-04T23:53:51.445Z,2.37
2023-03-04T23:56:23.644Z,2.36
2023-03-04T23:58:50.959Z,2.34
